AFL525 UNNT-UNKL
Flight info
| Callsign | AFL525 |
|---|---|
| Flight time | N/A |
| Altitude | 35000 |
| Route | OGATI1L OGATI A308 RISPA A366 KESED A309 ROTLI/K0793F270 A300 RANET RANET2S |
| Aircraft | B738/M-SDE2E3FGHIRWXY/LB1 |
Departure
| Time | 2026-05-01 15:00 |
|---|---|
| Airport | Novosibirsk Tolmachevo Airport (UNNT) |
Arrival
| Time | N/A |
|---|---|
| Airport | Krasnoyarsk International Airport (UNKL) |
| Time | Latitude | Longitude | Altitude | Speed | Heading |
|---|---|---|---|---|---|
| 2026-05-01 14:11 | 55.00988 | 82.65925 | 355 ft | 0 kts | 171° |
| 2026-05-01 14:48 | 55.00949 | 82.65919 | 358 ft | 5 kts | 214° |
| 2026-05-01 14:49 | 55.00931 | 82.65797 | 355 ft | 5 kts | 261° |
| 2026-05-01 14:49 | 55.00918 | 82.65667 | 355 ft | 7 kts | 260° |
| 2026-05-01 14:50 | 55.00907 | 82.65547 | 360 ft | 8 kts | 261° |
| 2026-05-01 14:50 | 55.00883 | 82.65253 | 356 ft | 10 kts | 262° |
| 2026-05-01 14:51 | 55.00875 | 82.65140 | 358 ft | 9 kts | 265° |
| 2026-05-01 14:51 | 55.00882 | 82.64924 | 359 ft | 9 kts | 283° |
| 2026-05-01 14:52 | 55.00907 | 82.64727 | 355 ft | 8 kts | 283° |
| 2026-05-01 14:52 | 55.00920 | 82.64636 | 355 ft | 8 kts | 283° |
| 2026-05-01 14:52 | 55.00950 | 82.64404 | 357 ft | 12 kts | 283° |
| 2026-05-01 14:53 | 55.00965 | 82.64284 | 356 ft | 9 kts | 282° |
| 2026-05-01 14:53 | 55.00973 | 82.64217 | 358 ft | 9 kts | 281° |
| 2026-05-01 14:53 | 55.00981 | 82.64152 | 360 ft | 5 kts | 284° |
| 2026-05-01 14:53 | 55.00989 | 82.64100 | 356 ft | 3 kts | 283° |
| 2026-05-01 14:54 | 55.00991 | 82.64082 | 356 ft | 0 kts | 283° |
| 2026-05-01 14:57 | 55.00994 | 82.64060 | 356 ft | 5 kts | 283° |
| 2026-05-01 14:57 | 55.01071 | 82.63993 | 359 ft | 7 kts | 350° |
| 2026-05-01 14:57 | 55.01117 | 82.63979 | 358 ft | 6 kts | 350° |
| 2026-05-01 14:58 | 55.01153 | 82.64010 | 362 ft | 4 kts | 73° |
| 2026-05-01 14:58 | 55.01153 | 82.64012 | 362 ft | 0 kts | 75° |
| 2026-05-01 14:58 | 55.01154 | 82.64017 | 361 ft | 0 kts | 76° |
| 2026-05-01 14:58 | 55.01154 | 82.64019 | 361 ft | 0 kts | 83° |
| 2026-05-01 14:59 | 55.01155 | 82.64035 | 358 ft | 6 kts | 82° |
| 2026-05-01 14:59 | 55.01205 | 82.64637 | 359 ft | 104 kts | 81° |
| 2026-05-01 14:59 | 55.01383 | 82.66413 | 482 ft | 184 kts | 80° |
| 2026-05-01 15:00 | 55.01748 | 82.71461 | 2301 ft | 223 kts | 88° |
| 2026-05-01 15:00 | 55.01921 | 82.74232 | 3086 ft | 234 kts | 89° |
| 2026-05-01 15:00 | 55.01833 | 82.77000 | 3896 ft | 225 kts | 109° |
| 2026-05-01 15:01 | 55.01352 | 82.79672 | 4679 ft | 228 kts | 110° |
| 2026-05-01 15:01 | 55.00893 | 82.82379 | 5071 ft | 244 kts | 110° |
| 2026-05-01 15:01 | 55.00483 | 82.85392 | 4977 ft | 262 kts | 103° |
| 2026-05-01 15:01 | 55.00211 | 82.88563 | 5584 ft | 266 kts | 102° |
| 2026-05-01 15:02 | 54.99951 | 82.91756 | 5934 ft | 268 kts | 101° |
| 2026-05-01 15:02 | 54.99768 | 82.93947 | 5991 ft | 273 kts | 101° |
| 2026-05-01 15:02 | 54.99392 | 82.98319 | 5991 ft | 272 kts | 102° |
| 2026-05-01 15:02 | 54.99104 | 83.01553 | 5995 ft | 269 kts | 102° |
| 2026-05-01 15:03 | 54.98809 | 83.04809 | 6288 ft | 275 kts | 102° |
| 2026-05-01 15:03 | 54.98502 | 83.08141 | 7244 ft | 279 kts | 102° |
| 2026-05-01 15:03 | 54.98196 | 83.11454 | 8258 ft | 284 kts | 102° |
| 2026-05-01 15:03 | 54.97871 | 83.14938 | 9213 ft | 291 kts | 102° |
| 2026-05-01 15:04 | 54.97540 | 83.18462 | 10118 ft | 299 kts | 102° |
| 2026-05-01 15:04 | 54.97204 | 83.22025 | 10995 ft | 304 kts | 102° |
| 2026-05-01 15:04 | 54.96881 | 83.25700 | 11899 ft | 310 kts | 101° |
| 2026-05-01 15:04 | 54.96598 | 83.29461 | 12793 ft | 316 kts | 99° |
| 2026-05-01 15:05 | 54.96323 | 83.33300 | 13677 ft | 323 kts | 99° |
| 2026-05-01 15:05 | 54.96044 | 83.37209 | 14493 ft | 328 kts | 99° |
| 2026-05-01 15:05 | 54.95759 | 83.41169 | 15327 ft | 332 kts | 99° |
| 2026-05-01 15:05 | 54.95466 | 83.45183 | 16157 ft | 337 kts | 99° |
| 2026-05-01 15:06 | 54.95166 | 83.49261 | 16935 ft | 343 kts | 99° |
| 2026-05-01 15:06 | 54.94857 | 83.53408 | 17749 ft | 348 kts | 99° |
| 2026-05-01 15:06 | 54.94543 | 83.57610 | 18539 ft | 352 kts | 99° |
| 2026-05-01 15:06 | 54.94223 | 83.61849 | 19301 ft | 355 kts | 99° |
| 2026-05-01 15:07 | 54.93900 | 83.66118 | 20084 ft | 357 kts | 99° |
| 2026-05-01 15:07 | 54.93573 | 83.70411 | 20852 ft | 359 kts | 100° |
| 2026-05-01 15:07 | 54.93242 | 83.74735 | 21598 ft | 362 kts | 100° |
| 2026-05-01 15:07 | 54.92906 | 83.79093 | 22333 ft | 365 kts | 100° |
| 2026-05-01 15:08 | 54.92566 | 83.83489 | 23069 ft | 368 kts | 100° |
| 2026-05-01 15:08 | 54.92221 | 83.87914 | 23759 ft | 371 kts | 100° |
| 2026-05-01 15:08 | 54.91872 | 83.92383 | 24344 ft | 375 kts | 100° |
| 2026-05-01 15:08 | 54.91517 | 83.96899 | 24891 ft | 379 kts | 100° |
| 2026-05-01 15:09 | 54.91157 | 84.01458 | 25445 ft | 383 kts | 100° |
| 2026-05-01 15:09 | 54.90791 | 84.06075 | 25994 ft | 387 kts | 100° |
| 2026-05-01 15:09 | 54.90420 | 84.10724 | 26538 ft | 391 kts | 100° |
| 2026-05-01 15:09 | 54.90044 | 84.15425 | 27077 ft | 394 kts | 100° |
| 2026-05-01 15:10 | 54.89663 | 84.20157 | 27607 ft | 398 kts | 100° |
| 2026-05-01 15:10 | 54.88883 | 84.29770 | 28632 ft | 405 kts | 100° |
| 2026-05-01 15:10 | 54.88484 | 84.34646 | 29134 ft | 409 kts | 100° |
| 2026-05-01 15:11 | 54.88081 | 84.39552 | 29630 ft | 413 kts | 100° |
| 2026-05-01 15:11 | 54.87263 | 84.49453 | 30607 ft | 416 kts | 100° |
| 2026-05-01 15:11 | 54.86848 | 84.54436 | 31036 ft | 418 kts | 100° |
| 2026-05-01 15:12 | 54.86428 | 84.59455 | 31370 ft | 423 kts | 99° |
| 2026-05-01 15:12 | 54.85597 | 84.69662 | 32018 ft | 432 kts | 97° |
| 2026-05-01 15:12 | 54.85299 | 84.74922 | 32088 ft | 443 kts | 96° |
| 2026-05-01 15:13 | 54.84498 | 84.91383 | 32336 ft | 469 kts | 96° |
| 2026-05-01 15:14 | 54.83822 | 85.02788 | 32628 ft | 480 kts | 97° |
| 2026-05-01 15:14 | 54.83553 | 85.06605 | 32839 ft | 481 kts | 97° |
| 2026-05-01 15:14 | 54.82559 | 85.19985 | 33919 ft | 476 kts | 97° |
| 2026-05-01 15:15 | 54.81666 | 85.31325 | 34648 ft | 474 kts | 98° |
| 2026-05-01 15:15 | 54.80764 | 85.42646 | 35014 ft | 478 kts | 98° |
| 2026-05-01 15:16 | 54.78964 | 85.65237 | 35030 ft | 470 kts | 98° |
| 2026-05-01 15:18 | 54.76664 | 85.93384 | 35046 ft | 472 kts | 97° |
| 2026-05-01 15:19 | 54.74809 | 86.15925 | 35046 ft | 474 kts | 97° |
| 2026-05-01 15:19 | 54.73422 | 86.32801 | 35038 ft | 474 kts | 95° |
| 2026-05-01 15:20 | 54.74725 | 86.43644 | 35061 ft | 463 kts | 57° |
| 2026-05-01 15:20 | 54.76621 | 86.48100 | 35050 ft | 459 kts | 46° |
| 2026-05-01 15:21 | 54.80812 | 86.56455 | 35041 ft | 460 kts | 46° |
| 2026-05-01 15:21 | 54.84971 | 86.64909 | 35039 ft | 461 kts | 47° |
| 2026-05-01 15:22 | 54.91150 | 86.77725 | 35052 ft | 461 kts | 47° |
| 2026-05-01 15:22 | 54.95250 | 86.86304 | 35036 ft | 461 kts | 47° |
| 2026-05-01 15:23 | 54.99342 | 86.94895 | 35043 ft | 461 kts | 46° |
| 2026-05-01 15:23 | 55.03434 | 87.03510 | 35038 ft | 461 kts | 47° |
| 2026-05-01 15:24 | 55.07513 | 87.12126 | 35037 ft | 460 kts | 47° |
| 2026-05-01 15:24 | 55.11582 | 87.20752 | 35052 ft | 460 kts | 47° |
| 2026-05-01 15:25 | 55.15639 | 87.29385 | 35053 ft | 460 kts | 46° |
| 2026-05-01 15:25 | 55.19700 | 87.38055 | 35057 ft | 460 kts | 46° |
| 2026-05-01 15:26 | 55.23746 | 87.46721 | 35065 ft | 459 kts | 46° |
| 2026-05-01 15:26 | 55.27789 | 87.55414 | 35061 ft | 460 kts | 46° |
| 2026-05-01 15:27 | 55.31832 | 87.64136 | 35070 ft | 461 kts | 46° |
| 2026-05-01 15:28 | 55.37904 | 87.77297 | 35067 ft | 462 kts | 46° |
| 2026-05-01 15:28 | 55.41943 | 87.86096 | 35074 ft | 462 kts | 46° |
| 2026-05-01 15:29 | 55.47985 | 87.99310 | 35072 ft | 461 kts | 46° |
| 2026-05-01 15:30 | 55.55325 | 88.15461 | 35086 ft | 461 kts | 46° |
| 2026-05-01 15:31 | 55.67973 | 88.43541 | 35067 ft | 461 kts | 46° |
| 2026-05-01 15:32 | 55.75917 | 88.61352 | 35074 ft | 460 kts | 46° |
| 2026-05-01 15:34 | 55.87754 | 88.88128 | 35083 ft | 461 kts | 45° |